Lapaz, Indiana
Current Conditions -  °F | °C
As of 12:12 PM on Saturday 25 Oct 2014 (Local Time) from KSBN Reporting Station
Scattered Clouds Scattered Clouds  
Wind Chill: 64°   Ceiling: Unl
Heat Index: 64°   Visibility: 9mi
Dew Point: 52°   Wind: 17mph
Humidity: 65%   Direction: 290°WNW
Pressure: 29.93"   Gusts: 23mph
Location:  41.46°N, 86.31°W
Report Text: KSBN 251612Z 29015G20KT 9SM SCT021 18/11 A2993 RMK AO2 T01780111
Loading
Personal Weather Stations






























Interactive Weather Map
Tropical Storm Tracking
New forecast layout! Learn more

10-Day Weather Forecast

Advertisements
Track Severe Weather on mobile